Terminal Aerodrome Forecast
Issued by NWS

Home | Current Version | Previous Version | Text Only | Print | Product List | Glossary On
Versions: 1 2 3 4 5 6 7 8 9 10 11 12 13 14 15
000
FTUS43 KABR 250500
TAFPIR
TAF
KPIR 250525Z 2506/2606 35011KT P6SM BKN120
     FM251800 12008KT P6SM SKC=

USA.gov is the U.S. government's official web portal to all federal, state and local government web resources and services.